Terminal Aerodrome Forecast
Issued by NWS

Current Version | Previous Version | Text Only | Print | Product List | Glossary Off
Versions: 1 2 3 4 5 6 7 8 9 10 11 12 13 14 15 16 17 18 19 20 21 22 23 24 25

000
FTUS41 KPBZ 301100
TAFHLG
TAF
KHLG 301120Z 3012/3112 16005KT P6SM SCT250
     FM301500 19010G16KT P6SM SCT050
     FM310000 19005KT P6SM BKN100
     FM310800 22005KT P6SM -SHRA BKN030=

USA.gov is the U.S. government's official web portal to all federal, state and local government web resources and services.